Time;durP1;ratioP1;P1;durP2;ratioP2;P2;SDS_P1;SDS_P2;PMS_P1;PMS_P2;Temp;Humidity;BMP_temperature;BMP_pressure;BME280_temperature;BME280_humidity;BME280_pressure;Samples;Min_cycle;Max_cycle;Signal;HPM_P1;HPM_P2
2023/01/13 00:00:00;;;;;;;3.33;1.52;;;8.30;95.10;;;;;;5030584;28;20457;-76
2023/01/13 00:02:26;;;;;;;3.27;1.10;;;;;;;;;;5029902;28;20029;-77
2023/01/13 00:04:52;;;;;;;1.23;1.10;;;;;;;;;;5029607;28;20761;-76
2023/01/13 00:07:18;;;;;;;5.13;1.42;;;;;;;;;;5029427;28;20071;-77
2023/01/13 00:09:44;;;;;;;9.23;1.63;;;;;;;;;;5030130;28;20033;-76
2023/01/13 00:12:10;;;;;;;1.30;0.90;;;;;;;;;;5041988;28;20643;-76
2023/01/13 00:14:36;;;;;;;1.35;1.00;;;;;;;;;;5029456;28;20041;-77
2023/01/13 00:17:02;;;;;;;5.53;1.00;;;8.30;94.70;;;;;;5029482;28;20475;-76
2023/01/13 00:19:28;;;;;;;1.02;1.00;;;;;;;;;;5029811;28;20131;-76
2023/01/13 00:21:55;;;;;;;0.90;0.90;;;;;;;;;;5029395;28;20045;-76
2023/01/13 00:24:20;;;;;;;1.70;1.17;;;8.60;95.80;;;;;;5029559;28;20108;-76
2023/01/13 00:26:46;;;;;;;2.25;0.88;;;;;;;;;;5029391;28;20550;-76
2023/01/13 00:29:12;;;;;;;2.22;0.90;;;;;;;;;;5029456;28;20128;-76
2023/01/13 00:31:38;;;;;;;2.22;0.93;;;;;;;;;;5029460;28;20096;-76
2023/01/13 00:34:04;;;;;;;2.97;0.88;;;;;;;;;;5029247;28;20121;-76
2023/01/13 00:36:30;;;;;;;1.73;1.05;;;8.60;92.70;;;;;;5027903;28;20386;-75
2023/01/13 00:38:56;;;;;;;3.63;1.42;;;8.60;92.20;;;;;;5029463;28;20033;-76
2023/01/13 00:41:24;;;;;;;2.47;1.60;;;8.60;93.70;;;;;;5028932;28;20061;-76
2023/01/13 00:43:50;;;;;;;5.60;1.25;;;;;;;;;;5029024;28;20634;-75
2023/01/13 00:46:18;;;;;;;2.08;1.42;;;8.60;95.30;;;;;;5028880;28;20145;-75
2023/01/13 00:48:45;;;;;;;5.22;1.20;;;8.70;91.30;;;;;;5028755;28;20537;-76
2023/01/13 00:51:14;;;;;;;2.20;1.20;;;8.80;90.80;;;;;;5029088;28;20104;-76
2023/01/13 00:53:45;;;;;;;3.20;1.10;;;9.40;92.10;;;;;;5029213;28;20047;-76
2023/01/13 00:56:16;;;;;;;3.13;1.23;;;8.80;90.40;;;;;;5029363;28;20067;-76
2023/01/13 00:58:43;;;;;;;5.82;1.00;;;8.80;90.80;;;;;;5029115;28;20029;-75
2023/01/13 01:01:14;;;;;;;1.58;1.00;;;8.70;97.70;;;;;;5028989;28;20563;-75
2023/01/13 01:03:40;;;;;;;7.13;2.22;;;;;;;;;;5027363;28;20026;-76
2023/01/13 01:06:15;;;;;;;8.07;1.20;;;8.80;90.00;;;;;;5028671;28;20033;-75
2023/01/13 01:08:41;;;;;;;0.88;0.75;;;8.70;90.40;;;;;;5027714;28;20410;-76
2023/01/13 01:11:10;;;;;;;0.82;0.82;;;8.80;89.30;;;;;;5019916;28;20038;-75
2023/01/13 01:13:37;;;;;;;1.55;1.38;;;8.80;88.60;;;;;;5025218;28;20025;-75
2023/01/13 01:16:08;;;;;;;12.15;1.80;;;8.80;89.10;;;;;;5029156;28;20053;-75
2023/01/13 01:18:35;;;;;;;1.27;1.00;;;8.80;89.40;;;;;;5028243;28;20490;-76
2023/01/13 01:21:01;;;;;;;3.35;0.98;;;;;;;;;;5028744;28;20026;-76
2023/01/13 01:23:28;;;;;;;2.75;1.70;;;8.70;89.40;;;;;;5028341;28;20028;-75
2023/01/13 01:25:54;;;;;;;0.98;0.88;;;;;;;;;;5028844;28;20104;-75
2023/01/13 01:28:20;;;;;;;2.92;0.75;;;8.70;89.50;;;;;;5028548;28;20136;-76
2023/01/13 01:30:46;;;;;;;2.08;1.25;;;;;;;;;;5028747;28;20104;-76
2023/01/13 01:33:12;;;;;;;1.65;0.88;;;;;;;;;;5028571;28;20037;-76
2023/01/13 01:35:39;;;;;;;1.85;1.48;;;9.30;89.90;;;;;;5027376;28;20024;-76
2023/01/13 01:38:05;;;;;;;1.37;1.00;;;;;;;;;;5028860;28;20425;-76
2023/01/13 01:40:31;;;;;;;0.90;0.90;;;;;;;;;;5028525;28;20256;-76
2023/01/13 01:45:42;;;;;;;1.02;0.82;;;9.00;86.30;;;;;;5028191;28;20165;-76
2023/01/13 01:48:09;;;;;;;1.17;1.07;;;9.00;85.30;;;;;;5027715;28;20087;-75
2023/01/13 01:50:35;;;;;;;1.20;1.10;;;9.10;85.00;;;;;;5028551;28;20037;-76
2023/01/13 01:53:23;;;;;;;1.75;0.80;;;9.10;84.60;;;;;;5028075;28;20472;-75
2023/01/13 01:55:49;;;;;;;;;;;9.20;84.50;;;;;;5028578;28;20100;-75
2023/01/13 01:58:36;;;;;;;0.90;0.90;;;9.50;87.90;;;;;;5028231;28;20000;-75
2023/01/13 02:01:02;;;;;;;;;;;9.20;85.20;;;;;;5030709;28;20078;-76
2023/01/13 02:03:28;;;;;;;1.65;0.98;;;9.00;85.30;;;;;;5028151;28;19905;-75
2023/01/13 02:05:54;;;;;;;4.28;1.13;;;9.20;85.80;;;;;;5027595;28;20013;-75
2023/01/13 02:08:20;;;;;;;1.15;1.02;;;9.20;85.90;;;;;;5027933;28;20034;-75
2023/01/13 02:10:52;;;;;;;0.65;0.65;;;9.20;86.30;;;;;;5027890;28;20029;-75
2023/01/13 02:13:20;;;;;;;0.80;0.77;;;9.20;96.00;;;;;;5034367;28;20106;-75
2023/01/13 02:16:04;;;;;;;;;;;9.10;86.70;;;;;;5028138;28;20014;-76
2023/01/13 02:19:27;;;;;;;0.80;0.80;;;9.30;91.40;;;;;;5027963;28;19905;-76
2023/01/13 02:22:30;;;;;;;1.75;0.80;;;9.20;85.70;;;;;;5005370;28;20034;-75
2023/01/13 02:24:56;;;;;;;0.98;0.90;;;;;;;;;;5005450;28;20054;-75
2023/01/13 02:27:22;;;;;;;2.08;0.80;;;;;;;;;;5005447;28;20554;-76
2023/01/13 02:32:53;;;;;;;2.28;0.80;;;9.30;85.90;;;;;;5005548;28;20049;-75
2023/01/13 02:35:21;;;;;;;1.05;1.05;;;9.20;94.30;;;;;;5005150;28;20566;-75
2023/01/13 02:37:48;;;;;;;8.50;1.70;;;9.20;88.50;;;;;;5005232;28;20041;-75
2023/01/13 02:40:21;;;;;;;1.02;0.75;;;9.10;88.80;;;;;;5005463;28;20033;-75
2023/01/13 02:46:14;;;;;;;3.00;0.77;;;9.10;88.70;;;;;;5004949;28;20100;-76
2023/01/13 02:48:43;;;;;;;0.88;0.80;;;9.10;88.10;;;;;;5005282;28;20038;-75
2023/01/13 02:51:14;;;;;;;2.45;0.70;;;9.00;94.50;;;;;;5004918;28;20095;-75
2023/01/13 02:53:57;;;;;;;1.20;0.73;;;9.20;87.90;;;;;;4988652;28;20427;-76
2023/01/13 02:56:25;;;;;;;2.28;0.65;;;9.00;96.80;;;;;;5005652;28;20069;-76
2023/01/13 02:58:54;;;;;;;0.95;0.95;;;8.20;87.70;;;;;;5021718;28;20489;-76
2023/01/13 03:01:20;;;;;;;1.42;1.05;;;;;;;;;;5027395;28;20025;-76
2023/01/13 03:03:46;;;;;;;2.65;1.42;;;9.10;92.70;;;;;;5027331;28;20101;-76
2023/01/13 03:06:41;;;;;;;4.03;1.50;;;9.00;89.50;;;;;;5027447;28;20136;-76
2023/01/13 03:09:28;;;;;;;2.22;1.35;;;8.90;90.00;;;;;;5027097;28;20033;-76
2023/01/13 03:12:38;;;;;;;0.60;0.60;;;8.70;91.40;;;;;;5027152;28;20038;-76
2023/01/13 03:15:35;;;;;;;1.27;0.93;;;8.80;90.50;;;;;;5020740;28;20124;-76
2023/01/13 03:18:08;;;;;;;3.03;0.90;;;8.80;90.60;;;;;;5004709;28;20115;-76
2023/01/13 03:20:43;;;;;;;3.60;1.35;;;8.80;91.50;;;;;;5003947;28;20075;-76
2023/01/13 03:23:34;;;;;;;6.30;1.20;;;8.60;94.20;;;;;;5003354;28;20834;-76
2023/01/13 03:26:15;;;;;;;0.77;0.75;;;8.80;90.60;;;;;;5004889;28;20022;-76
2023/01/13 03:29:11;;;;;;;3.40;1.25;;;8.70;90.50;;;;;;5006926;28;20537;-76
2023/01/13 03:31:45;;;;;;;1.55;0.90;;;8.70;90.50;;;;;;5001971;28;20034;-76
2023/01/13 03:34:14;;;;;;;1.00;0.77;;;8.70;90.40;;;;;;5008560;28;20030;-76
2023/01/13 03:36:42;;;;;;;2.65;1.60;;;9.30;95.00;;;;;;5008276;28;20038;-77
2023/01/13 03:39:13;;;;;;;10.55;1.13;;;8.90;90.20;;;;;;5008463;28;20419;-76
2023/01/13 03:41:52;;;;;;;2.70;1.35;;;9.00;94.80;;;;;;5007917;28;20088;-76
2023/01/13 03:44:26;;;;;;;0.70;0.70;;;9.00;90.00;;;;;;5006599;28;20062;-76
2023/01/13 03:46:52;;;;;;;0.65;0.65;;;;;;;;;;5007846;28;20034;-76
2023/01/13 03:49:22;;;;;;;6.63;1.38;;;9.10;97.30;;;;;;5008203;28;20419;-76
2023/01/13 03:51:55;;;;;;;1.17;0.77;;;9.30;89.70;;;;;;5007983;28;21261;-76
2023/01/13 03:54:24;;;;;;;1.77;1.00;;;9.30;95.50;;;;;;5010218;28;20125;-75
2023/01/13 03:56:55;;;;;;;4.47;1.25;;;9.00;96.80;;;;;;5030125;28;20014;-76
2023/01/13 03:59:25;;;;;;;5.93;0.88;;;9.30;88.10;;;;;;5030712;28;20056;-76
2023/01/13 04:02:13;;;;;;;0.88;0.70;;;9.40;90.50;;;;;;5030002;28;20100;-76
2023/01/13 04:04:46;;;;;;;4.80;1.08;;;9.50;87.80;;;;;;5042329;28;20075;-77
2023/01/13 04:07:36;;;;;;;1.98;0.80;;;9.70;88.20;;;;;;5030434;28;20099;-76
2023/01/13 04:10:05;;;;;;;2.47;0.88;;;9.20;91.30;;;;;;5030352;28;20041;-76
2023/01/13 04:15:23;;;;;;;0.80;0.60;;;9.30;94.80;;;;;;5020416;28;20040;-76
2023/01/13 04:17:50;;;;;;;2.80;0.90;;;9.50;96.90;;;;;;5030164;28;20032;-75
2023/01/13 04:20:16;;;;;;;1.50;0.88;;;9.20;96.60;;;;;;5029982;28;20021;-76
2023/01/13 04:22:42;;;;;;;0.60;0.60;;;;;;;;;;5030560;28;20041;-75
2023/01/13 04:25:08;;;;;;;1.25;0.82;;;;;;;;;;5030037;28;20032;-76
2023/01/13 04:27:35;;;;;;;5.70;0.90;;;;;;;;;;5030175;28;20033;-76
2023/01/13 04:30:00;;;;;;;1.52;1.15;;;9.60;97.00;;;;;;5030247;28;20025;-75
2023/01/13 04:32:26;;;;;;;0.88;0.70;;;9.40;92.80;;;;;;5030109;28;20033;-76
2023/01/13 04:34:52;;;;;;;0.75;0.75;;;;;;;;;;5029628;28;20459;-76
2023/01/13 04:37:18;;;;;;;2.10;1.15;;;;;;;;;;5029812;28;20128;-76
2023/01/13 04:39:45;;;;;;;1.10;0.70;;;;;;;;;;5029307;28;20678;-76
2023/01/13 04:42:11;;;;;;;1.23;0.68;;;;;;;;;;5029884;28;20376;-76
2023/01/13 04:44:37;;;;;;;2.72;0.82;;;9.10;93.30;;;;;;5029344;28;20032;-76
2023/01/13 04:47:03;;;;;;;1.13;0.70;;;9.20;95.20;;;;;;5029644;28;20406;-75
2023/01/13 04:49:29;;;;;;;1.13;1.02;;;9.10;94.40;;;;;;5029179;28;20041;-76
2023/01/13 04:51:55;;;;;;;1.65;1.30;;;;;;;;;;5029886;28;20122;-75
2023/01/13 04:54:21;;;;;;;7.55;0.80;;;;;;;;;;5028871;28;20039;-76
2023/01/13 04:56:47;;;;;;;5.57;1.33;;;;;;;;;;5029069;28;20120;-76
2023/01/13 04:59:13;;;;;;;1.42;0.85;;;;;;;;;;5029100;28;20104;-75
2023/01/13 05:01:39;;;;;;;2.67;1.20;;;9.30;95.00;;;;;;5029604;28;20037;-76
2023/01/13 05:04:06;;;;;;;2.72;1.10;;;9.70;93.80;;;;;;5029247;28;20485;-76
2023/01/13 05:06:32;;;;;;;1.40;0.63;;;;;;;;;;5029264;28;20029;-75
2023/01/13 05:08:58;;;;;;;1.00;0.68;;;;;;;;;;5014160;28;20049;-76
2023/01/13 05:17:16;;;;;;;0.85;0.85;;;9.60;90.90;;;;;;4986541;28;20073;-76
2023/01/13 05:19:42;;;;;;;0.73;0.73;;;9.50;93.40;;;;;;4987227;28;20133;-76
2023/01/13 05:27:37;;;;;;;0.80;0.75;;;;;;;;;;4986481;28;20045;-76
2023/01/13 05:30:04;;;;;;;2.47;0.70;;;9.70;98.70;;;;;;4970199;28;20026;-76
2023/01/13 05:32:30;;;;;;;6.82;0.85;;;;;;;;;;4986829;28;20069;-75
2023/01/13 05:34:56;;;;;;;0.60;0.60;;;;;;;;;;4986805;28;20056;-76
2023/01/13 05:37:22;;;;;;;0.70;0.70;;;9.70;91.00;;;;;;4986484;28;20065;-76
2023/01/13 05:45:18;;;;;;;0.88;0.68;;;;;;;;;;4986407;28;20587;-75
2023/01/13 05:47:43;;;;;;;0.88;0.73;;;;;;;;;;4994564;28;20129;-75
2023/01/13 05:50:10;;;;;;;9.82;1.13;;;;;;;;;;5027889;28;20033;-76
2023/01/13 05:52:35;;;;;;;0.80;0.73;;;9.60;93.70;;;;;;5027321;28;20482;-76
2023/01/13 05:55:01;;;;;;;1.05;0.68;;;;;;;;;;5026370;28;20029;-76
2023/01/13 05:57:28;;;;;;;4.47;0.75;;;;;;;;;;5028408;28;20021;-76
2023/01/13 05:59:54;;;;;;;3.13;0.68;;;;;;;;;;5020435;28;20025;-76
2023/01/13 06:02:20;;;;;;;0.50;0.50;;;;;;;;;;5027734;28;20380;-76
2023/01/13 06:04:46;;;;;;;0.85;0.70;;;;;;;;;;5028357;28;20029;-75
2023/01/13 06:07:12;;;;;;;0.50;0.50;;;;;;;;;;5023163;28;20624;-76
2023/01/13 06:09:37;;;;;;;2.22;0.50;;;;;;;;;;5022637;28;20049;-76
2023/01/13 06:12:04;;;;;;;2.08;1.15;;;;;;;;;;5026701;28;20051;-76
2023/01/13 06:14:38;;;;;;;0.68;0.50;;;;;;;;;;5027667;28;20534;-76
2023/01/13 06:17:12;;;;;;;0.57;0.55;;;9.40;93.70;;;;;;5027409;28;20453;-76
2023/01/13 06:19:39;;;;;;;0.63;0.52;;;9.40;93.60;;;;;;5026371;28;20044;-76
2023/01/13 06:22:22;;;;;;;0.40;0.40;;;9.60;99.10;;;;;;5011820;28;20071;-76
2023/01/13 06:24:52;;;;;;;0.50;0.50;;;9.60;93.70;;;;;;5025941;28;20124;-76
2023/01/13 06:27:20;;;;;;;0.45;0.45;;;9.60;93.30;;;;;;5025616;28;20533;-76
2023/01/13 06:29:46;;;;;;;1.98;0.75;;;;;;;;;;5025844;28;20029;-76
2023/01/13 06:32:17;;;;;;;0.80;0.80;;;9.70;94.70;;;;;;5019823;28;20040;-76
2023/01/13 06:34:47;;;;;;;2.08;1.05;;;9.80;93.00;;;;;;5018342;28;20039;-76
2023/01/13 06:37:18;;;;;;;3.15;0.95;;;9.70;93.20;;;;;;5021808;28;20051;-77
2023/01/13 06:39:44;;;;;;;1.63;1.17;;;;;;;;;;5025565;28;20029;-76
2023/01/13 06:44:55;;;;;;;0.82;0.73;;;9.70;98.10;;;;;;5024169;28;20242;-82
2023/01/13 06:47:21;;;;;;;2.13;1.27;;;9.50;95.70;;;;;;5023948;28;20116;-82
2023/01/13 06:49:47;;;;;;;1.55;0.80;;;;;;;;;;5024194;28;20526;-81
2023/01/13 06:52:13;;;;;;;1.17;0.98;;;9.60;99.90;;;;;;5015854;28;20018;-83
2023/01/13 06:54:39;;;;;;;2.65;1.90;;;9.70;97.40;;;;;;5015870;28;20450;-76
2023/01/13 06:57:05;;;;;;;1.05;0.95;;;;;;;;;;5014511;28;20034;-76
2023/01/13 06:59:34;;;;;;;1.67;0.95;;;;;;;;;;5025795;28;20072;-77
2023/01/13 07:02:00;;;;;;;2.67;1.38;;;;;;;;;;5023402;28;20033;-77
2023/01/13 07:04:26;;;;;;;6.07;1.42;;;;;;;;;;5025975;28;20056;-77
2023/01/13 07:06:52;;;;;;;1.20;1.10;;;;;;;;;;5025925;28;20033;-77
2023/01/13 07:09:18;;;;;;;1.70;1.08;;;;;;;;;;5026007;28;20029;-77
2023/01/13 07:11:44;;;;;;;5.07;1.35;;;;;;;;;;5025990;28;20022;-77
2023/01/13 07:16:54;;;;;;;0.93;0.82;;;;;;;;;;5025627;28;20111;-79
2023/01/13 07:19:22;;;;;;;3.67;1.20;;;;;;;;;;5024747;28;20100;-78
2023/01/13 07:21:50;;;;;;;1.73;1.63;;;9.40;99.90;;;;;;5025400;28;20172;-79
2023/01/13 07:24:16;;;;;;;1.40;1.00;;;;;;;;;;5018955;28;20534;-77
2023/01/13 07:26:42;;;;;;;0.95;0.93;;;9.10;99.90;;;;;;5026424;28;20056;-75
2023/01/13 07:29:07;;;;;;;2.03;1.20;;;9.30;98.50;;;;;;5020852;28;20065;-75
2023/01/13 07:31:33;;;;;;;4.90;1.70;;;;;;;;;;5039703;28;20399;-76
2023/01/13 07:33:59;;;;;;;1.30;0.98;;;;;;;;;;5026010;28;20536;-75
2023/01/13 07:36:25;;;;;;;0.90;0.80;;;9.00;99.90;;;;;;5013675;28;20034;-75
2023/01/13 07:38:51;;;;;;;3.20;1.50;;;;;;;;;;5026708;28;20064;-75
2023/01/13 07:44:04;;;;;;;1.10;0.80;;;9.20;95.90;;;;;;5034174;28;20491;-76
2023/01/13 07:46:31;;;;;;;1.63;1.17;;;9.20;96.50;;;;;;5022037;28;20049;-77
2023/01/13 07:48:56;;;;;;;1.55;1.17;;;9.40;99.30;;;;;;5031507;28;20041;-76
2023/01/13 07:51:22;;;;;;;5.38;1.30;;;9.10;99.10;;;;;;5021083;28;20171;-76
2023/01/13 07:53:48;;;;;;;1.10;1.00;;;;;;;;;;5026752;28;20126;-76
2023/01/13 07:56:15;;;;;;;0.75;0.70;;;9.20;96.00;;;;;;5034739;28;20029;-76
2023/01/13 07:58:41;;;;;;;0.98;0.90;;;;;;;;;;5036576;28;20025;-77
2023/01/13 08:01:11;;;;;;;0.82;0.80;;;9.00;97.00;;;;;;5034252;28;20056;-77
2023/01/13 08:03:38;;;;;;;1.65;0.95;;;8.90;97.00;;;;;;5039261;28;20619;-75
2023/01/13 08:06:05;;;;;;;0.50;0.50;;;9.40;97.60;;;;;;5027857;28;20112;-75
2023/01/13 08:08:31;;;;;;;3.55;1.45;;;;;;;;;;5021717;28;20041;-75
2023/01/13 08:11:01;;;;;;;1.85;1.30;;;9.10;97.10;;;;;;5029489;28;20025;-74
2023/01/13 08:13:27;;;;;;;1.48;1.02;;;;;;;;;;5029432;28;20060;-74
2023/01/13 08:15:59;;;;;;;4.00;1.30;;;9.50;98.90;;;;;;5029478;28;20021;-76
2023/01/13 08:18:25;;;;;;;4.50;1.08;;;;;;;;;;5028574;28;20120;-75
2023/01/13 08:20:51;;;;;;;1.85;1.00;;;;;;;;;;5029191;28;20093;-75
2023/01/13 08:23:21;;;;;;;2.67;1.27;;;10.30;95.20;;;;;;5029209;28;20037;-80
2023/01/13 08:25:47;;;;;;;3.83;1.00;;;;;;;;;;5028429;28;20037;-77
2023/01/13 08:28:14;;;;;;;1.10;1.00;;;11.50;94.10;;;;;;5028967;28;20040;-83
2023/01/13 08:30:40;;;;;;;1.33;0.98;;;10.80;99.90;;;;;;5029544;28;20228;-78
2023/01/13 08:33:07;;;;;;;0.88;0.75;;;10.80;95.40;;;;;;5029091;28;20585;-80
2023/01/13 08:35:36;;;;;;;4.20;1.05;;;11.20;99.20;;;;;;5029110;28;20037;-75
2023/01/13 08:38:02;;;;;;;1.10;0.98;;;;;;;;;;5029581;28;20033;-76
2023/01/13 08:40:28;;;;;;;2.38;0.88;;;;;;;;;;5028677;28;20033;-82
2023/01/13 08:42:55;;;;;;;1.20;1.10;;;10.20;94.20;;;;;;5029302;28;20026;-81
2023/01/13 08:45:20;;;;;;;2.67;1.00;;;9.90;97.90;;;;;;5028464;28;20061;-79
2023/01/13 08:47:46;;;;;;;0.73;0.73;;;;;;;;;;5028321;28;20068;-79
2023/01/13 08:50:13;;;;;;;1.33;1.00;;;11.00;94.30;;;;;;5028283;28;20499;-83
2023/01/13 08:52:39;;;;;;;2.08;1.45;;;;;;;;;;5026498;28;20026;-81
2023/01/13 08:55:05;;;;;;;1.27;1.17;;;13.50;87.40;;;;;;5017952;28;20021;-76
2023/01/13 08:57:31;;;;;;;1.63;1.17;;;;;;;;;;5027809;28;20604;-81
2023/01/13 08:59:57;;;;;;;1.23;1.00;;;;;;;;;;5025887;28;20051;-80
2023/01/13 09:02:24;;;;;;;1.35;0.80;;;12.40;87.90;;;;;;5028154;28;20022;-79
2023/01/13 09:04:50;;;;;;;2.03;0.70;;;12.90;85.40;;;;;;5027425;28;20049;-79
2023/01/13 09:07:17;;;;;;;1.33;1.20;;;;;;;;;;5028056;28;20269;-81
2023/01/13 09:09:43;;;;;;;1.80;0.95;;;;;;;;;;5028120;28;20529;-81
2023/01/13 09:14:58;;;;;;;1.90;1.80;;;26.30;53.40;;;;;;5025340;28;20028;-81
2023/01/13 09:17:24;;;;;;;1.27;0.47;;;;;;;;;;5027238;28;20097;-81
2023/01/13 09:19:50;;;;;;;1.42;1.02;;;23.30;57.90;;;;;;5022655;28;20025;-79
2023/01/13 09:22:18;;;;;;;3.63;1.50;;;22.60;59.10;;;;;;5027007;28;20017;-81
2023/01/13 09:24:44;;;;;;;0.70;0.50;;;22.80;48.50;;;;;;5026957;28;20033;-81
2023/01/13 09:27:14;;;;;;;2.25;1.25;;;24.00;54.30;;;;;;5025106;28;20025;-79
2023/01/13 09:29:40;;;;;;;1.80;1.38;;;;;;;;;;5026928;28;20037;-80
2023/01/13 09:32:06;;;;;;;2.15;1.05;;;29.90;47.80;;;;;;5027553;28;20032;-78
2023/01/13 09:37:17;;;;;;;2.10;0.52;;;;;;;;;;5027636;28;20040;-81
2023/01/13 09:39:42;;;;;;;2.65;0.20;;;26.50;49.90;;;;;;5022371;28;20022;-80
2023/01/13 09:45:31;;;;;;;6.00;2.10;;;19.70;52.40;;;;;;5021212;28;20112;-80
2023/01/13 09:48:15;;;;;;;5.30;2.78;;;17.90;49.80;;;;;;5026834;28;20036;-80
2023/01/13 09:51:06;;;;;;;4.78;2.17;;;16.60;51.20;;;;;;5027180;28;20036;-78
2023/01/13 09:53:38;;;;;;;3.35;0.70;;;16.10;52.70;;;;;;5019097;28;20040;-79
2023/01/13 09:56:05;;;;;;;19.52;5.63;;;16.00;53.40;;;;;;5025312;28;20045;-79
2023/01/13 09:58:33;;;;;;;12.07;6.50;;;15.70;52.30;;;;;;5027193;28;20185;-79
2023/01/13 10:01:26;;;;;;;20.13;10.23;;;16.10;53.00;;;;;;5030087;28;20074;-80
2023/01/13 10:03:52;;;;;;;1.60;1.25;;;16.10;52.80;;;;;;5031294;28;20044;-83
2023/01/13 10:06:34;;;;;;;5.90;2.17;;;16.10;51.60;;;;;;5029792;28;20079;-79
2023/01/13 10:09:00;;;;;;;12.20;4.57;;;;;;;;;;5026933;28;20533;-80
2023/01/13 10:14:20;;;;;;;35.35;12.63;;;;;;;;;;5014545;28;20080;-80
2023/01/13 10:17:10;;;;;;;13.02;6.47;;;15.70;68.80;;;;;;5026520;28;20030;-78
2023/01/13 10:19:59;;;;;;;3.97;2.42;;;15.50;54.30;;;;;;5026668;28;20033;-78
2023/01/13 10:22:25;;;;;;;8.80;3.13;;;;;;;;;;5014301;28;20029;-78
2023/01/13 10:25:29;;;;;;;21.13;6.78;;;16.10;65.60;;;;;;5026501;28;20028;-79
2023/01/13 10:28:03;;;;;;;13.73;5.65;;;16.20;53.70;;;;;;5026798;28;20042;-78
2023/01/13 10:30:38;;;;;;;3.72;2.05;;;16.90;67.40;;;;;;5026560;28;20037;-79
2023/01/13 10:33:13;;;;;;;3.03;1.75;;;17.00;53.00;;;;;;5026476;28;20499;-80
2023/01/13 10:35:56;;;;;;;2.20;1.27;;;17.20;53.10;;;;;;5025769;28;20485;-80
2023/01/13 10:38:43;;;;;;;1.23;0.98;;;16.90;52.90;;;;;;5026497;28;20403;-79
2023/01/13 10:41:15;;;;;;;7.80;3.13;;;17.20;52.30;;;;;;5024745;28;20503;-81
2023/01/13 10:43:55;;;;;;;7.20;3.10;;;16.70;52.70;;;;;;5023051;28;20501;-77
2023/01/13 10:46:21;;;;;;;7.63;4.10;;;;;;;;;;5026012;28;20048;-76
2023/01/13 10:48:57;;;;;;;6.80;2.88;;;21.30;46.10;;;;;;5026768;28;20068;-84
2023/01/13 10:51:36;;;;;;;2.38;1.25;;;21.50;56.70;;;;;;5025357;28;20037;-84
2023/01/13 10:54:11;;;;;;;3.47;1.95;;;;;;;;;;5025733;28;20029;-84
2023/01/13 10:56:38;;;;;;;3.20;2.70;;;23.20;46.40;;;;;;5026425;28;20564;-84
2023/01/13 10:59:26;;;;;;;0.90;0.45;;;25.70;41.80;;;;;;5026197;28;20033;-84
2023/01/13 11:01:59;;;;;;;2.30;1.70;;;28.10;38.90;;;;;;5026319;28;20585;-84
2023/01/13 11:04:41;;;;;;;2.22;1.40;;;28.90;37.70;;;;;;5026092;28;20550;-83
2023/01/13 11:07:28;;;;;;;1.00;0.68;;;30.90;34.80;;;;;;5025811;28;20033;-83
2023/01/13 11:10:26;;;;;;;10.63;4.95;;;27.10;35.40;;;;;;5025174;28;20033;-77
2023/01/13 11:13:34;;;;;;;4.93;2.75;;;26.80;38.00;;;;;;5025570;28;20265;-77
2023/01/13 11:16:09;;;;;;;3.58;1.65;;;26.00;46.40;;;;;;5014091;28;20547;-77
2023/01/13 11:18:50;;;;;;;1.45;0.93;;;24.90;38.10;;;;;;5025530;28;20116;-77
2023/01/13 11:21:28;;;;;;;1.17;0.70;;;24.40;38.90;;;;;;5022645;28;20498;-77
2023/01/13 11:24:20;;;;;;;1.10;0.50;;;25.10;47.90;;;;;;5013025;28;20021;-77
2023/01/13 11:27:08;;;;;;;1.45;0.40;;;22.40;38.80;;;;;;5000546;28;20124;-76
2023/01/13 11:29:34;;;;;;;1.23;0.60;;;;;;;;;;5002876;28;20128;-77
2023/01/13 11:32:13;;;;;;;0.32;0.28;;;20.40;43.10;;;;;;4987131;28;20117;-77
2023/01/13 11:34:42;;;;;;;1.05;0.50;;;19.50;58.30;;;;;;4997414;28;20096;-77
2023/01/13 11:37:23;;;;;;;1.00;0.45;;;17.60;58.50;;;;;;4998014;28;20070;-77
2023/01/13 11:39:56;;;;;;;1.65;0.32;;;;;;;;;;4984712;28;20109;-79
2023/01/13 11:43:00;;;;;;;0.88;0.35;;;16.40;50.80;;;;;;5014087;28;20107;-77
2023/01/13 11:45:26;;;;;;;1.27;0.63;;;;;;;;;;5002538;28;20238;-77
2023/01/13 11:47:57;;;;;;;0.70;0.52;;;16.70;50.70;;;;;;5003586;28;20062;-76
2023/01/13 11:50:33;;;;;;;0.47;0.47;;;16.40;51.10;;;;;;5007161;28;20052;-76
2023/01/13 11:53:16;;;;;;;0.47;0.30;;;15.10;51.60;;;;;;5005264;28;20097;-77
2023/01/13 11:55:56;;;;;;;1.02;0.68;;;15.40;53.00;;;;;;5006797;28;20042;-77
2023/01/13 11:58:54;;;;;;;0.68;0.45;;;15.10;54.20;;;;;;5007333;28;20056;-76
2023/01/13 12:01:57;;;;;;;2.78;0.90;;;15.40;63.00;;;;;;5001734;28;20034;-77
2023/01/13 12:04:27;;;;;;;0.95;0.60;;;14.80;55.30;;;;;;5016696;28;20064;-77
2023/01/13 12:07:35;;;;;;;0.73;0.60;;;14.60;55.60;;;;;;5031477;28;20017;-76
2023/01/13 12:10:27;;;;;;;1.13;0.70;;;14.20;61.30;;;;;;5029225;28;20403;-76
2023/01/13 12:13:09;;;;;;;1.45;0.60;;;14.20;57.50;;;;;;5023789;28;20034;-76
2023/01/13 12:15:35;;;;;;;1.17;0.77;;;;;;;;;;5028897;28;20029;-77
2023/01/13 12:18:26;;;;;;;0.40;0.40;;;13.80;58.70;;;;;;5039220;28;20027;-76
2023/01/13 12:20:58;;;;;;;0.98;0.70;;;13.70;59.60;;;;;;5025493;28;20021;-76
2023/01/13 12:23:24;;;;;;;0.98;0.70;;;;;;;;;;5028033;28;20029;-77
2023/01/13 12:25:56;;;;;;;1.67;0.95;;;13.30;61.30;;;;;;5028971;28;20036;-76
2023/01/13 12:28:31;;;;;;;0.98;0.68;;;13.20;61.70;;;;;;5029235;28;20087;-76
2023/01/13 12:31:01;;;;;;;0.80;0.40;;;13.20;61.40;;;;;;5029158;28;20443;-76
2023/01/13 12:33:27;;;;;;;1.23;0.65;;;;;;;;;;5029033;28;20116;-77
2023/01/13 12:36:03;;;;;;;0.75;0.60;;;12.90;62.00;;;;;;5028453;28;20534;-76
2023/01/13 12:38:55;;;;;;;0.32;0.32;;;12.70;63.70;;;;;;5028875;28;20027;-76
2023/01/13 12:41:37;;;;;;;2.90;0.85;;;12.50;64.00;;;;;;5005622;28;20038;-76
2023/01/13 12:44:15;;;;;;;0.73;0.60;;;;;;;;;;4998595;28;20100;-76
2023/01/13 12:46:54;;;;;;;0.50;0.50;;;12.40;65.00;;;;;;4996915;28;20089;-76
2023/01/13 12:49:26;;;;;;;4.10;1.17;;;12.60;65.70;;;;;;5006310;28;20529;-77
2023/01/13 12:51:52;;;;;;;1.05;0.93;;;;;;;;;;5006252;28;20610;-76
2023/01/13 12:54:30;;;;;;;0.82;0.70;;;;;;;;;;5007994;28;20045;-76
2023/01/13 12:56:58;;;;;;;0.85;0.70;;;12.70;65.20;;;;;;5007185;28;20030;-76
2023/01/13 12:59:24;;;;;;;0.82;0.60;;;;;;;;;;5005288;28;20042;-76
2023/01/13 13:02:11;;;;;;;2.33;0.90;;;13.20;81.00;;;;;;5002529;28;20372;-76
2023/01/13 13:04:50;;;;;;;0.50;0.50;;;13.00;64.80;;;;;;5000116;28;20042;-76
2023/01/13 13:07:25;;;;;;;0.50;0.50;;;12.90;80.60;;;;;;5011316;28;20498;-76
2023/01/13 13:10:09;;;;;;;0.60;0.57;;;13.00;64.80;;;;;;5002085;28;20455;-76
2023/01/13 13:15:33;;;;;;;5.65;2.28;;;16.60;66.50;;;;;;5005379;28;20625;-75
2023/01/13 13:17:59;;;;;;;4.03;1.30;;;;;;;;;;4999015;28;20568;-76
2023/01/13 13:20:56;;;;;;;0.70;0.57;;;11.90;63.90;;;;;;5026973;28;20156;-79
2023/01/13 13:23:33;;;;;;;3.17;1.73;;;12.50;80.70;;;;;;5027552;28;20033;-79
2023/01/13 13:26:18;;;;;;;2.38;1.40;;;12.60;65.20;;;;;;5028466;28;20083;-77
2023/01/13 13:29:13;;;;;;;8.02;1.80;;;12.50;64.10;;;;;;5026846;28;20469;-78
2023/01/13 13:32:06;;;;;;;5.88;3.00;;;12.40;64.50;;;;;;5027567;28;20060;-76
2023/01/13 13:34:32;;;;;;;11.60;2.97;;;;;;;;;;5027654;28;20069;-81
2023/01/13 13:36:58;;;;;;;8.35;3.83;;;;;;;;;;5027396;28;20548;-80
2023/01/13 13:47:46;;;;;;;3.35;1.90;;;;;;;;;;5027487;28;20068;-78
2023/01/13 13:50:19;;;;;;;3.75;2.15;;;12.60;61.60;;;;;;5027099;28;20045;-78
2023/01/13 13:53:07;;;;;;;12.68;4.15;;;12.60;61.50;;;;;;5027005;28;20035;-78
2023/01/13 13:55:33;;;;;;;14.15;4.47;;;12.60;61.20;;;;;;5026868;28;20025;-77
2023/01/13 13:58:00;;;;;;;1.05;0.85;;;12.50;60.70;;;;;;5027257;28;20505;-78
2023/01/13 14:00:32;;;;;;;1.92;0.90;;;15.80;62.90;;;;;;5025931;28;20030;-85
2023/01/13 14:03:00;;;;;;;1.08;0.70;;;12.30;60.30;;;;;;5033157;28;20028;-84
2023/01/13 14:05:34;;;;;;;2.58;1.13;;;12.10;60.60;;;;;;5026721;28;20021;-85
2023/01/13 14:08:13;;;;;;;1.70;0.80;;;12.30;70.50;;;;;;5025934;28;20022;-84
2023/01/13 14:10:42;;;;;;;3.45;1.30;;;12.00;60.90;;;;;;5024286;28;20030;-84
2023/01/13 14:13:28;;;;;;;3.53;1.02;;;11.90;60.60;;;;;;5026875;28;20075;-86
2023/01/13 14:15:59;;;;;;;4.05;1.15;;;11.80;76.20;;;;;;5027371;28;20018;-85
2023/01/13 14:18:26;;;;;;;2.80;1.40;;;11.90;60.10;;;;;;5026667;28;20033;-85
2023/01/13 14:21:15;;;;;;;0.88;0.70;;;12.00;60.00;;;;;;5026359;28;20022;-75
2023/01/13 14:23:55;;;;;;;0.93;0.93;;;12.00;60.30;;;;;;5025096;28;20067;-83
2023/01/13 14:26:27;;;;;;;2.05;1.20;;;12.00;60.20;;;;;;5023396;28;20026;-87
2023/01/13 14:28:55;;;;;;;2.75;1.60;;;11.90;60.50;;;;;;5018781;28;20032;-81
2023/01/13 14:31:20;;;;;;;;;;;11.90;61.00;;;;;;5026676;28;20313;-80
2023/01/13 14:33:49;;;;;;;1.10;0.88;;;11.70;60.80;;;;;;5026783;28;20567;-81
2023/01/13 14:36:18;;;;;;;1.60;0.75;;;11.70;61.20;;;;;;5025147;28;20025;-80
2023/01/13 14:39:06;;;;;;;0.50;0.50;;;11.60;61.20;;;;;;5022490;28;20088;-80
2023/01/13 14:41:34;;;;;;;0.85;0.82;;;11.60;61.30;;;;;;5017670;28;20466;-80
2023/01/13 14:44:07;;;;;;;2.75;0.77;;;12.30;62.20;;;;;;5025943;28;20080;-80
2023/01/13 14:46:44;;;;;;;0.68;0.68;;;11.50;78.00;;;;;;5026126;28;20049;-80
2023/01/13 14:49:19;;;;;;;3.05;0.90;;;;;;;;;;5020651;28;20135;-79